Time;durP1;ratioP1;P1;durP2;ratioP2;P2;SDS_P1;SDS_P2;PMS_P1;PMS_P2;Temp;Humidity;BMP_temperature;BMP_pressure;BME280_temperature;BME280_humidity;BME280_pressure;Samples;Min_cycle;Max_cycle;Signal;HPM_P1;HPM_P2
2021/12/30 00:00:00;;;;;;;31.73;15.15;;;;;;;7.29;67.83;94380.22;4921694;29;20046;-79
2021/12/30 00:02:30;;;;;;;18.88;10.40;;;;;;;7.31;67.74;94378.19;4920640;29;20042;-78
2021/12/30 00:04:58;;;;;;;14.05;7.78;;;;;;;7.29;67.51;94377.63;4937448;29;20047;-79
2021/12/30 00:07:23;;;;;;;8.73;7.00;;;;;;;7.28;67.82;94368.31;4937890;29;20039;-79
2021/12/30 00:10:00;;;;;;;8.57;5.18;;;;;;;7.30;67.72;94372.25;4936125;29;20047;-79
2021/12/30 00:12:25;;;;;;;6.03;4.85;;;;;;;7.32;67.60;94374.59;4889346;29;20132;-78
2021/12/30 00:14:54;;;;;;;7.03;5.13;;;;;;;7.30;67.31;94366.28;4909540;29;20044;-78
2021/12/30 00:17:19;;;;;;;5.25;4.75;;;;;;;7.21;66.77;94374.38;4901558;29;20036;-80
2021/12/30 00:19:45;;;;;;;5.18;4.75;;;;;;;7.21;67.22;94376.16;4894797;29;20052;-79
2021/12/30 00:22:10;;;;;;;4.50;4.00;;;;;;;7.11;66.77;94381.06;4895845;29;20052;-79
2021/12/30 00:24:36;;;;;;;5.22;4.72;;;;;;;7.05;67.70;94385.34;4893042;29;20036;-79
2021/12/30 00:27:03;;;;;;;7.18;4.75;;;;;;;7.05;68.14;94395.69;4878907;29;20032;-79
2021/12/30 00:29:29;;;;;;;5.90;5.28;;;;;;;7.00;67.94;94389.59;4894183;29;20044;-79
2021/12/30 00:31:54;;;;;;;5.28;4.68;;;;;;;6.97;67.71;94385.63;4885806;29;20117;-78
2021/12/30 00:34:19;;;;;;;7.45;6.03;;;;;;;6.95;67.94;94390.25;4910029;29;20036;-79
2021/12/30 00:36:45;;;;;;;6.07;5.50;;;;;;;6.95;67.87;94390.25;4910014;29;20036;-79
2021/12/30 00:39:10;;;;;;;8.95;5.55;;;;;;;6.98;68.10;94394.19;4893332;29;20040;-79
2021/12/30 00:41:36;;;;;;;8.63;5.35;;;;;;;7.00;67.56;94390.38;4893278;29;20422;-79
2021/12/30 00:44:02;;;;;;;10.10;6.15;;;;;;;6.97;67.96;94398.56;4892027;29;20063;-79
2021/12/30 00:46:27;;;;;;;7.25;5.32;;;;;;;6.94;68.09;94404.16;4908519;29;20052;-79
2021/12/30 00:48:52;;;;;;;5.85;4.75;;;;;;;6.89;68.29;94401.47;4892747;29;20053;-78
2021/12/30 00:51:20;;;;;;;5.13;4.60;;;;;;;6.87;67.82;94403.47;4877321;29;20095;-79
2021/12/30 00:53:45;;;;;;;7.55;4.65;;;;;;;6.82;68.35;94400.75;4876062;29;20033;-79
2021/12/30 00:56:11;;;;;;;10.65;6.55;;;;;;;6.84;68.35;94403.94;4877775;29;20039;-79
2021/12/30 00:58:37;;;;;;;9.60;5.00;;;;;;;6.86;68.30;94401.91;4910568;29;20035;-79
2021/12/30 01:01:04;;;;;;;5.40;4.47;;;;;;;6.85;67.99;94406.28;4891906;29;20627;-79
2021/12/30 01:03:30;;;;;;;4.80;4.35;;;;;;;6.81;68.02;94404.34;4949358;23;20132;-79
2021/12/30 01:05:55;;;;;;;5.95;5.13;;;;;;;6.77;68.55;94405.78;4938614;29;20031;-78
2021/12/30 01:08:21;;;;;;;7.72;5.15;;;;;;;6.71;68.81;94404.88;4937942;29;20032;-79
2021/12/30 01:10:47;;;;;;;5.03;4.55;;;;;;;6.66;68.23;94412.47;4920752;29;20031;-79
2021/12/30 01:13:22;;;;;;;5.93;4.80;;;;;;;6.70;68.61;94420.59;4920486;29;20078;-79
2021/12/30 01:16:02;;;;;;;5.07;4.63;;;;;;;6.73;68.83;94423.53;4919379;29;20125;-79
2021/12/30 01:18:54;;;;;;;6.45;4.82;;;;;;;6.77;68.31;94423.88;4922915;29;20040;-79
2021/12/30 01:21:20;;;;;;;8.75;5.38;;;;;;;6.77;68.52;94423.88;5001378;23;20054;-79
2021/12/30 01:23:45;;;;;;;5.40;4.78;;;;;;;6.74;68.40;94429.47;4943691;29;20039;-79
2021/12/30 01:26:11;;;;;;;4.18;3.78;;;;;;;6.71;68.34;94422.97;4947819;28;20044;-79
2021/12/30 01:28:36;;;;;;;5.25;4.30;;;;;;;6.68;69.08;94430.34;4930274;29;20039;-79
2021/12/30 01:31:02;;;;;;;6.30;4.45;;;;;;;6.69;69.10;94426.75;4916026;29;20046;-79
2021/12/30 01:33:28;;;;;;;4.95;4.45;;;;;;;6.73;69.18;94433.06;4931704;29;20077;-79
2021/12/30 01:35:53;;;;;;;5.13;4.22;;;;;;;6.80;68.36;94428.59;4914132;29;20039;-79
2021/12/30 01:38:19;;;;;;;5.53;4.30;;;;;;;6.82;69.06;94435.13;4913703;29;20046;-79
2021/12/30 01:40:46;;;;;;;5.30;4.80;;;;;;;6.85;68.70;94436.50;4946624;29;20683;-79
2021/12/30 01:43:12;;;;;;;5.55;4.80;;;;;;;6.91;68.09;94436.41;4930530;29;20039;-80
2021/12/30 01:45:39;;;;;;;6.53;4.88;;;;;;;6.92;68.20;94437.22;4897912;29;20034;-79
2021/12/30 01:48:04;;;;;;;8.98;5.32;;;;;;;6.95;68.28;94436.75;4912067;29;20056;-79
2021/12/30 01:50:30;;;;;;;6.88;4.57;;;;;;;6.98;67.59;94438.91;4946173;29;20035;-78
2021/12/30 01:52:55;;;;;;;5.93;4.90;;;;;;;6.97;67.71;94442.50;4929674;29;20038;-79
2021/12/30 01:55:21;;;;;;;7.82;4.25;;;;;;;7.00;67.42;94434.34;4946876;29;20027;-79
2021/12/30 01:57:47;;;;;;;6.05;3.55;;;;;;;7.04;67.39;94432.09;4926494;29;20496;-79
2021/12/30 02:00:15;;;;;;;8.45;5.50;;;;;;;7.07;67.14;94434.25;4943216;29;20069;-79
2021/12/30 02:02:40;;;;;;;9.60;5.30;;;;;;;7.06;67.36;94433.44;4898796;29;20135;-80
2021/12/30 02:05:06;;;;;;;8.98;5.35;;;;;;;7.08;67.58;94436.59;4931355;29;20036;-79
2021/12/30 02:07:31;;;;;;;6.40;5.40;;;;;;;7.09;67.70;94439.97;4928596;29;20043;-79
2021/12/30 02:10:01;;;;;;;6.75;5.32;;;;;;;7.09;67.67;94437.38;4915224;29;20035;-78
2021/12/30 02:12:27;;;;;;;7.45;5.15;;;;;;;7.13;67.04;94439.31;4944758;29;20047;-79
2021/12/30 02:14:53;;;;;;;5.38;4.47;;;;;;;7.14;67.44;94440.09;4929772;29;20046;-80
2021/12/30 02:17:21;;;;;;;4.25;3.80;;;;;;;7.12;67.16;94442.13;4946189;29;20072;-79
2021/12/30 02:19:46;;;;;;;6.93;4.93;;;;;;;7.10;67.48;94442.34;4928897;29;20035;-79
2021/12/30 02:22:31;;;;;;;9.73;5.40;;;;;;;7.09;67.80;94438.19;4945129;29;20084;-78
2021/12/30 02:24:59;;;;;;;4.93;3.88;;;;;;;7.08;67.46;94443.56;4897486;29;20384;-79
2021/12/30 02:27:24;;;;;;;4.97;4.20;;;;;;;7.13;67.45;94447.06;4898972;29;20505;-79
2021/12/30 02:29:50;;;;;;;5.55;4.47;;;;;;;7.11;67.96;94443.91;4901368;29;20036;-80
2021/12/30 02:32:15;;;;;;;5.22;3.92;;;;;;;7.13;67.56;94446.28;4896848;23;20040;-79
2021/12/30 02:34:41;;;;;;;5.43;4.90;;;;;;;7.18;67.82;94454.97;4917950;29;20051;-80
2021/12/30 02:37:07;;;;;;;6.22;4.50;;;;;;;7.19;67.73;94453.19;4923966;29;20080;-80
2021/12/30 02:39:32;;;;;;;5.82;4.05;;;;;;;7.21;67.52;94458.91;4931737;29;20032;-80
2021/12/30 02:41:58;;;;;;;5.43;4.43;;;;;;;7.23;67.02;94449.13;4930724;29;20029;-79
2021/12/30 02:44:23;;;;;;;6.55;4.55;;;;;;;7.23;67.41;94454.31;4901531;29;20036;-79
2021/12/30 02:46:52;;;;;;;7.45;4.43;;;;;;;7.20;66.87;94463.31;4885318;29;20039;-79
2021/12/30 02:49:18;;;;;;;7.13;4.45;;;;;;;7.22;67.28;94463.88;4899946;29;20055;-79
2021/12/30 02:51:43;;;;;;;7.55;4.72;;;;;;;7.21;67.55;94470.06;4885118;29;20032;-79
2021/12/30 02:54:09;;;;;;;5.65;4.35;;;;;;;7.25;67.19;94474.78;4885533;29;20124;-79
2021/12/30 02:56:35;;;;;;;6.60;5.22;;;;;;;7.23;67.18;94475.78;4892518;29;20049;-79
2021/12/30 02:59:01;;;;;;;7.43;6.03;;;;;;;7.25;67.12;94477.38;4886637;29;20083;-79
2021/12/30 03:01:28;;;;;;;13.55;9.60;;;;;;;7.29;67.40;94468.16;4885438;29;20461;-79
2021/12/30 03:03:54;;;;;;;16.70;10.50;;;;;;;7.31;67.05;94477.28;4903597;29;20096;-79
2021/12/30 03:06:20;;;;;;;11.68;8.63;;;;;;;7.32;66.76;94475.47;4927206;29;20184;-79
2021/12/30 03:08:46;;;;;;;13.70;8.30;;;;;;;7.34;67.22;94476.06;4883782;29;20104;-78
2021/12/30 03:11:12;;;;;;;16.98;6.82;;;;;;;7.41;66.63;94484.50;4896724;29;20046;-79
2021/12/30 03:13:41;;;;;;;8.82;6.55;;;;;;;7.41;66.65;94487.09;4884393;29;20071;-79
2021/12/30 03:16:11;;;;;;;7.05;5.88;;;;;;;7.45;66.77;94493.41;4869834;29;20485;-79
2021/12/30 03:18:39;;;;;;;14.63;7.20;;;;;;;7.49;66.64;94497.16;4899642;29;20527;-79
2021/12/30 03:21:08;;;;;;;11.40;6.82;;;;;;;7.46;66.43;94493.19;4868943;29;20040;-80
2021/12/30 03:23:33;;;;;;;10.20;6.85;;;;;;;7.51;66.12;94498.50;4868426;29;20036;-79
2021/12/30 03:25:59;;;;;;;8.70;5.85;;;;;;;7.50;65.92;94499.53;4898501;29;20504;-79
2021/12/30 03:28:24;;;;;;;7.68;5.55;;;;;;;7.49;66.21;94504.91;4880611;29;20413;-78
2021/12/30 03:30:51;;;;;;;8.00;5.53;;;;;;;7.52;66.10;94502.66;4914046;29;20048;-78
2021/12/30 03:33:17;;;;;;;8.88;6.05;;;;;;;7.54;66.26;94499.84;4913607;29;20036;-79
2021/12/30 03:35:42;;;;;;;6.90;5.25;;;;;;;7.59;66.29;94506.94;4866188;29;20488;-79
2021/12/30 03:38:08;;;;;;;7.57;5.97;;;;;;;7.61;65.92;94507.53;4898924;29;20051;-79
2021/12/30 03:40:33;;;;;;;8.85;5.82;;;;;;;7.56;66.39;94509.97;4900170;29;20050;-78
2021/12/30 03:42:59;;;;;;;7.50;5.50;;;;;;;7.59;66.01;94505.16;4899428;29;20032;-78
2021/12/30 03:45:24;;;;;;;8.88;6.10;;;;;;;7.59;65.72;94507.75;4900413;29;20076;-79
2021/12/30 03:47:51;;;;;;;10.52;6.03;;;;;;;7.61;66.28;94508.31;4869134;29;20035;-78
2021/12/30 03:50:20;;;;;;;5.97;4.90;;;;;;;7.65;65.42;94501.69;4884502;29;20051;-78
2021/12/30 03:52:54;;;;;;;5.30;4.80;;;;;;;7.65;65.69;94509.47;4900645;29;20040;-78
2021/12/30 03:55:20;;;;;;;7.63;5.10;;;;;;;7.67;65.69;94514.41;4883957;29;20037;-79
2021/12/30 03:57:46;;;;;;;12.98;7.40;;;;;;;7.67;65.48;94522.97;4884996;29;20110;-78
2021/12/30 04:00:12;;;;;;;12.40;9.35;;;;;;;7.67;65.63;94520.38;4899428;29;20138;-78
2021/12/30 04:02:37;;;;;;;13.57;9.27;;;;;;;7.64;65.30;94528.56;4917418;29;20043;-79
2021/12/30 04:05:03;;;;;;;10.63;8.13;;;;;;;7.64;66.42;94528.56;4886818;29;20040;-79
2021/12/30 04:07:29;;;;;;;11.60;6.63;;;;;;;7.65;65.85;94537.94;4900139;29;20387;-78
2021/12/30 04:09:54;;;;;;;15.38;9.43;;;;;;;7.65;65.67;94537.16;4885426;29;20595;-78
2021/12/30 04:12:20;;;;;;;12.23;7.63;;;;;;;7.61;66.09;94539.34;4917703;29;20064;-78
2021/12/30 04:14:47;;;;;;;7.00;5.75;;;;;;;7.59;65.63;94536.19;4917544;29;20047;-79
2021/12/30 04:17:13;;;;;;;7.93;6.03;;;;;;;7.56;66.12;94549.59;4899878;29;20044;-79
2021/12/30 04:19:38;;;;;;;4.85;4.40;;;;;;;7.45;65.16;94545.13;4885497;29;20119;-78
2021/12/30 04:22:04;;;;;;;5.05;4.55;;;;;;;7.41;65.88;94559.53;4917180;29;20111;-79
2021/12/30 04:24:29;;;;;;;13.38;8.13;;;;;;;7.38;66.70;94560.75;4900944;29;20080;-78
2021/12/30 04:26:55;;;;;;;12.18;8.32;;;;;;;7.41;66.93;94572.47;4899662;29;20072;-79
2021/12/30 04:29:20;;;;;;;5.38;4.78;;;;;;;7.42;66.72;94572.25;4900193;29;20047;-79
2021/12/30 04:31:46;;;;;;;5.22;3.83;;;;;;;7.43;66.54;94573.81;4900157;29;20051;-78
2021/12/30 04:34:12;;;;;;;5.78;5.18;;;;;;;7.40;66.11;94583.81;4884064;29;20047;-78
2021/12/30 04:36:37;;;;;;;8.63;5.63;;;;;;;7.37;66.18;94586.84;4899567;29;20103;-78
2021/12/30 04:39:03;;;;;;;7.97;6.43;;;;;;;7.40;66.27;94589.78;4883934;29;20122;-78
2021/12/30 04:41:29;;;;;;;8.38;5.88;;;;;;;7.34;65.99;94595.03;4884040;29;20036;-79
2021/12/30 04:43:54;;;;;;;6.13;5.30;;;;;;;7.31;66.44;94590.28;4899568;29;20124;-79
2021/12/30 04:46:45;;;;;;;6.30;4.70;;;;;;;7.28;66.34;94588.91;4901610;29;20048;-78
2021/12/30 04:49:11;;;;;;;4.05;3.70;;;;;;;7.20;65.94;94584.84;4906832;29;20036;-78
2021/12/30 04:51:36;;;;;;;5.00;3.53;;;;;;;7.20;66.00;94595.19;4925363;29;20055;-79
2021/12/30 04:54:02;;;;;;;5.47;3.97;;;;;;;7.19;66.09;94598.78;5451743;23;20520;-80
2021/12/30 04:56:28;;;;;;;4.47;4.07;;;;;;;7.21;66.04;94607.09;4937326;29;20602;-79
2021/12/30 04:58:53;;;;;;;7.60;3.85;;;;;;;7.15;66.15;94607.94;4945802;29;20043;-80
2021/12/30 05:01:19;;;;;;;4.40;4.00;;;;;;;7.19;65.89;94610.91;4915152;29;20023;-79
2021/12/30 05:03:44;;;;;;;4.05;3.75;;;;;;;7.17;65.46;94624.06;4911294;29;20044;-80
2021/12/30 05:06:10;;;;;;;4.00;3.70;;;;;;;7.16;65.85;94624.28;4913357;29;20031;-79
2021/12/30 05:08:35;;;;;;;9.45;5.15;;;;;;;7.13;65.69;94625.47;4948401;29;20050;-79
2021/12/30 05:11:01;;;;;;;6.05;5.43;;;;;;;7.11;65.93;94624.91;4928976;29;20035;-79
2021/12/30 05:13:26;;;;;;;8.40;6.45;;;;;;;7.14;66.06;94627.06;4947372;29;20044;-78
2021/12/30 05:15:52;;;;;;;10.32;5.70;;;;;;;7.20;65.67;94628.81;4945638;29;20042;-79
2021/12/30 05:18:19;;;;;;;7.00;5.65;;;;;;;7.19;65.84;94624.63;4930403;29;20117;-78
2021/12/30 05:20:44;;;;;;;8.65;5.60;;;;;;;7.21;65.91;94627.00;4945928;29;20069;-78
2021/12/30 05:23:10;;;;;;;11.90;7.72;;;;;;;7.25;65.78;94632.53;4912568;29;20063;-79
2021/12/30 05:25:35;;;;;;;10.88;6.43;;;;;;;7.20;65.20;94641.72;4928700;29;20044;-78
2021/12/30 05:28:01;;;;;;;8.02;6.10;;;;;;;7.21;65.29;94645.91;4946537;29;20091;-79
2021/12/30 05:30:27;;;;;;;7.65;6.40;;;;;;;7.20;65.50;94646.13;4931363;29;20082;-79
2021/12/30 05:32:53;;;;;;;8.63;5.57;;;;;;;7.12;65.37;94652.34;4931083;29;20038;-78
2021/12/30 05:35:19;;;;;;;5.65;4.20;;;;;;;7.06;65.54;94655.78;4928309;29;20561;-78
2021/12/30 05:37:44;;;;;;;4.05;3.75;;;;;;;7.06;65.85;94660.16;4930312;29;20049;-79
2021/12/30 05:40:13;;;;;;;5.60;4.70;;;;;;;7.06;65.79;94663.53;4912305;29;20039;-79
2021/12/30 05:42:38;;;;;;;8.50;6.43;;;;;;;7.08;66.00;94671.88;4930238;29;20061;-79
2021/12/30 05:45:05;;;;;;;8.75;7.95;;;;;;;7.07;66.03;94672.88;4930434;29;20031;-78
2021/12/30 05:47:30;;;;;;;9.65;4.82;;;;;;;7.14;65.71;94681.34;4914276;29;20114;-79
2021/12/30 05:50:00;;;;;;;5.50;4.68;;;;;;;7.19;65.42;94681.53;4912951;29;20419;-79
2021/12/30 05:52:30;;;;;;;7.75;5.85;;;;;;;7.21;65.52;94684.69;4946282;29;20039;-78
2021/12/30 05:54:56;;;;;;;7.07;6.38;;;;;;;7.29;65.18;94682.81;4944478;29;20039;-79
2021/12/30 05:57:21;;;;;;;8.00;6.72;;;;;;;7.30;65.67;94682.59;4947180;29;20456;-78
2021/12/30 05:59:47;;;;;;;9.23;6.68;;;;;;;7.36;64.99;94692.09;4945879;28;20495;-79
2021/12/30 06:02:12;;;;;;;9.02;6.13;;;;;;;7.39;64.57;94693.47;4979041;23;20039;-79
2021/12/30 06:04:37;;;;;;;8.05;6.15;;;;;;;7.41;64.37;94699.22;4937498;29;20046;-79
2021/12/30 06:07:03;;;;;;;7.55;5.03;;;;;;;7.44;64.30;94709.13;4937158;29;20035;-79
2021/12/30 06:09:28;;;;;;;4.15;3.85;;;;;;;7.44;64.28;94709.13;4938276;29;20035;-79
2021/12/30 06:11:54;;;;;;;5.20;4.70;;;;;;;7.47;64.26;94713.88;4920736;29;20047;-79
2021/12/30 06:14:19;;;;;;;12.15;4.30;;;;;;;7.52;63.62;94711.44;4937898;29;20054;-79
2021/12/30 06:16:45;;;;;;;5.18;4.68;;;;;;;7.47;63.70;94711.28;4924322;23;20494;-79
2021/12/30 06:19:10;;;;;;;4.47;4.13;;;;;;;7.41;62.42;94730.25;4938780;29;20046;-79
2021/12/30 06:21:36;;;;;;;11.50;3.55;;;;;;;7.32;61.30;94737.53;4937602;29;20051;-79
2021/12/30 06:24:01;;;;;;;3.45;3.15;;;;;;;7.02;61.13;94739.97;4919128;29;20068;-78
2021/12/30 06:26:29;;;;;;;3.30;3.00;;;;;;;6.73;61.04;94753.47;4918166;29;20035;-79
2021/12/30 06:28:54;;;;;;;3.97;2.50;;;;;;;6.57;61.21;94759.94;4927140;28;20039;-79
2021/12/30 06:31:20;;;;;;;2.88;2.67;;;;;;;6.40;61.68;94764.81;4944474;23;20036;-78
2021/12/30 06:33:47;;;;;;;2.80;2.60;;;;;;;6.26;61.54;94773.59;4951992;29;20043;-78
2021/12/30 06:36:13;;;;;;;3.20;3.00;;;;;;;6.10;62.14;94769.69;4929916;29;20035;-79
2021/12/30 06:38:38;;;;;;;4.90;3.17;;;;;;;5.88;62.76;94779.47;4910594;29;20102;-79
2021/12/30 06:41:04;;;;;;;4.63;2.92;;;;;;;5.95;63.04;94782.06;4928197;29;20030;-79
2021/12/30 06:43:29;;;;;;;4.03;3.70;;;;;;;6.05;62.87;94789.38;4910650;29;20063;-79
2021/12/30 06:45:55;;;;;;;5.63;3.60;;;;;;;5.99;63.44;94789.19;4925360;29;20493;-79
2021/12/30 06:48:20;;;;;;;3.67;3.15;;;;;;;5.89;62.77;94788.81;4910419;29;20056;-79
2021/12/30 06:50:51;;;;;;;4.80;3.88;;;;;;;5.82;62.86;94794.97;4926237;29;20027;-79
2021/12/30 06:53:23;;;;;;;3.40;3.10;;;;;;;5.82;62.47;94795.75;4909004;29;20126;-79
2021/12/30 06:55:50;;;;;;;2.80;2.60;;;;;;;5.82;61.86;94797.53;4910066;29;20040;-78
2021/12/30 06:58:15;;;;;;;2.92;2.63;;;;;;;5.67;62.13;94813.25;4893357;29;20032;-78
2021/12/30 07:00:41;;;;;;;2.55;2.40;;;;;;;5.66;61.95;94812.47;4925831;29;20167;-78
2021/12/30 07:03:07;;;;;;;3.03;2.83;;;;;;;5.61;62.70;94821.81;4925179;29;20393;-78
2021/12/30 07:05:32;;;;;;;2.58;2.38;;;;;;;5.77;61.99;94825.75;4908269;29;20032;-78
2021/12/30 07:07:58;;;;;;;3.47;3.17;;;;;;;5.96;62.21;94828.31;4910863;29;20044;-78
2021/12/30 07:10:24;;;;;;;2.72;2.53;;;;;;;6.12;62.39;94832.25;4910164;29;20123;-79
2021/12/30 07:12:49;;;;;;;3.33;3.03;;;;;;;6.23;61.10;94836.00;4927689;29;20031;-78
2021/12/30 07:15:33;;;;;;;7.15;3.85;;;;;;;6.45;61.24;94850.22;4912378;29;20082;-79
2021/12/30 07:17:58;;;;;;;4.00;3.67;;;;;;;6.55;60.40;94845.41;4928146;29;20520;-78
2021/12/30 07:20:24;;;;;;;9.38;3.28;;;;;;;6.68;59.74;94854.09;4927212;29;20075;-78
2021/12/30 07:22:49;;;;;;;5.80;3.75;;;;;;;6.70;59.99;94857.28;4914649;29;20028;-80
2021/12/30 07:25:16;;;;;;;5.38;3.67;;;;;;;6.79;59.40;94869.72;4897234;29;20087;-81
2021/12/30 07:27:46;;;;;;;8.48;4.32;;;;;;;6.88;59.15;94872.88;4933528;29;20468;-81
2021/12/30 07:30:12;;;;;;;5.30;3.40;;;;;;;6.82;58.51;94869.31;4899347;29;20040;-81
2021/12/30 07:32:38;;;;;;;4.63;3.70;;;;;;;6.82;59.31;94879.66;4932514;29;20428;-84
2021/12/30 07:35:03;;;;;;;4.10;3.70;;;;;;;6.82;58.70;94886.59;4910830;29;20531;-79
2021/12/30 07:37:29;;;;;;;3.92;3.63;;;;;;;6.77;58.62;94881.28;4926322;29;20527;-79
2021/12/30 07:39:54;;;;;;;4.32;3.65;;;;;;;6.90;58.52;94883.78;4929214;29;20514;-78
2021/12/30 07:42:20;;;;;;;3.72;3.50;;;;;;;6.83;58.94;94890.78;4912964;29;20035;-79
2021/12/30 07:44:45;;;;;;;2.92;2.72;;;;;;;6.86;57.47;94895.56;4912464;29;20040;-79
2021/12/30 07:47:11;;;;;;;5.35;3.45;;;;;;;6.80;57.37;94893.78;4929340;29;20028;-79
2021/12/30 07:49:36;;;;;;;4.15;3.75;;;;;;;6.78;57.82;94901.75;4911844;29;20082;-79
2021/12/30 07:52:05;;;;;;;4.07;3.63;;;;;;;6.80;57.60;94899.75;4931126;29;20028;-79
2021/12/30 07:54:31;;;;;;;7.43;4.47;;;;;;;6.72;57.52;94909.53;4928788;29;20036;-79
2021/12/30 07:56:56;;;;;;;3.60;2.95;;;;;;;6.58;58.10;94904.41;4929193;29;20032;-79
2021/12/30 07:59:22;;;;;;;7.28;3.33;;;;;;;6.60;57.84;94909.38;4931174;29;20032;-79
2021/12/30 08:01:49;;;;;;;5.00;3.97;;;;;;;6.59;58.38;94910.38;4931772;29;20055;-79
2021/12/30 08:04:15;;;;;;;4.00;3.60;;;;;;;6.58;58.77;94917.31;4935167;29;20192;-79
2021/12/30 08:06:40;;;;;;;5.40;3.83;;;;;;;6.69;58.68;94918.50;4927038;29;20050;-79
2021/12/30 08:09:06;;;;;;;7.32;4.80;;;;;;;6.70;58.37;94917.50;4949841;23;20051;-79
2021/12/30 08:11:32;;;;;;;6.03;4.72;;;;;;;6.72;58.34;94922.44;4937991;29;20049;-79
2021/12/30 08:13:59;;;;;;;7.65;5.25;;;;;;;6.75;58.17;94927.22;4936915;29;20040;-79
2021/12/30 08:16:28;;;;;;;7.68;5.57;;;;;;;6.63;57.99;94922.66;4922213;29;20042;-79
2021/12/30 08:18:53;;;;;;;10.05;5.32;;;;;;;6.68;57.93;94923.88;4936749;29;20067;-79
2021/12/30 08:21:21;;;;;;;6.38;4.57;;;;;;;6.71;58.35;94932.00;4921331;29;20036;-78
2021/12/30 08:23:47;;;;;;;4.53;3.70;;;;;;;6.65;57.97;94937.16;4921659;29;20567;-78
2021/12/30 08:28:41;;;;;;;5.32;3.97;;;;;;;6.62;57.89;94953.88;4944183;23;20051;-79
2021/12/30 08:31:07;;;;;;;3.50;3.20;;;;;;;6.67;57.38;94955.84;4938478;29;20036;-79
2021/12/30 08:33:32;;;;;;;4.20;3.20;;;;;;;6.67;57.57;94961.84;4920344;29;20083;-79
2021/12/30 08:35:58;;;;;;;4.40;3.33;;;;;;;6.71;56.90;94973.34;4896130;29;20044;-80
2021/12/30 08:38:26;;;;;;;4.38;3.58;;;;;;;6.79;56.67;94969.72;4920567;29;20048;-79
2021/12/30 08:40:51;;;;;;;8.13;4.30;;;;;;;6.78;57.19;94973.31;4921514;29;20091;-79
2021/12/30 08:43:17;;;;;;;10.07;5.18;;;;;;;6.92;57.16;94969.69;4936766;29;20131;-79
2021/12/30 08:45:43;;;;;;;7.25;5.10;;;;;;;6.96;57.21;94977.81;4921076;29;20028;-82
2021/12/30 08:48:09;;;;;;;10.00;4.78;;;;;;;6.92;56.82;94980.03;4920803;29;20128;-79
2021/12/30 08:50:34;;;;;;;4.88;4.18;;;;;;;6.89;57.02;94977.84;4905343;29;20082;-79
2021/12/30 08:53:00;;;;;;;4.80;4.13;;;;;;;6.88;56.59;94987.41;4905536;29;20038;-79
2021/12/30 08:55:25;;;;;;;9.13;3.70;;;;;;;6.88;56.71;94989.19;4920908;29;20035;-79
2021/12/30 08:57:51;;;;;;;6.40;4.53;;;;;;;6.87;56.70;94988.41;4961862;23;20159;-79
2021/12/30 09:00:23;;;;;;;6.75;4.65;;;;;;;6.89;56.52;94990.78;4937972;29;20144;-78
2021/12/30 09:02:49;;;;;;;10.10;4.95;;;;;;;6.94;57.31;94996.13;4936073;29;20500;-79
2021/12/30 09:05:14;;;;;;;5.47;4.20;;;;;;;6.95;56.67;94995.13;4935903;29;20388;-79
2021/12/30 09:07:40;;;;;;;9.85;4.78;;;;;;;7.07;56.44;95003.84;4904434;29;20039;-79
2021/12/30 09:10:06;;;;;;;7.30;5.43;;;;;;;7.15;56.05;95002.78;4938308;29;20043;-79
2021/12/30 09:12:32;;;;;;;7.25;4.72;;;;;;;7.21;55.92;95000.19;4920703;29;20043;-79
2021/12/30 09:14:58;;;;;;;8.45;5.25;;;;;;;7.35;55.82;95010.50;4919895;29;20027;-79
2021/12/30 09:17:23;;;;;;;7.18;5.20;;;;;;;7.44;55.18;95012.63;4919535;29;20127;-79
2021/12/30 09:19:51;;;;;;;7.65;4.93;;;;;;;7.48;55.18;95003.47;4935856;29;20050;-78
2021/12/30 09:22:16;;;;;;;6.97;5.60;;;;;;;7.63;55.26;95010.91;4920444;29;20888;-79
2021/12/30 09:24:42;;;;;;;6.50;4.38;;;;;;;7.65;54.46;95006.34;4927480;29;20030;-79
2021/12/30 09:27:07;;;;;;;7.97;4.95;;;;;;;7.65;54.37;95008.94;4934793;29;20031;-79
2021/12/30 09:29:33;;;;;;;8.70;5.85;;;;;;;7.65;54.29;95019.28;4920260;29;20037;-79
2021/12/30 09:31:59;;;;;;;8.73;5.28;;;;;;;7.73;54.13;95013.84;4937118;29;20063;-78
2021/12/30 09:34:25;;;;;;;6.72;4.70;;;;;;;7.75;53.83;95021.41;4902696;29;20120;-78
2021/12/30 09:36:50;;;;;;;7.35;4.95;;;;;;;7.63;53.67;95013.50;4924489;29;20035;-78
2021/12/30 09:39:16;;;;;;;5.75;4.70;;;;;;;7.45;53.86;95016.00;4911628;29;20032;-79
2021/12/30 09:41:44;;;;;;;8.48;4.72;;;;;;;7.20;54.14;95019.31;4936566;29;20036;-78
2021/12/30 09:44:10;;;;;;;8.60;4.97;;;;;;;7.32;54.87;95019.47;4903891;29;20934;-79
2021/12/30 09:46:36;;;;;;;10.80;5.18;;;;;;;7.15;55.77;95026.88;4910977;29;20036;-79
2021/12/30 09:49:02;;;;;;;8.88;5.30;;;;;;;6.76;56.16;95027.78;4919994;29;20043;-79
2021/12/30 09:51:28;;;;;;;8.48;5.28;;;;;;;6.43;57.14;95033.00;4919236;29;20518;-79
2021/12/30 09:53:53;;;;;;;9.32;4.80;;;;;;;6.42;57.89;95039.16;4904336;29;20036;-79
2021/12/30 09:56:22;;;;;;;8.38;5.45;;;;;;;6.59;57.29;95026.63;4920073;29;20040;-79
2021/12/30 09:58:47;;;;;;;8.05;4.93;;;;;;;6.68;57.02;95034.97;4920599;29;20051;-79
2021/12/30 10:01:13;;;;;;;7.70;4.47;;;;;;;6.73;56.54;95041.13;4904871;29;20050;-80
2021/12/30 10:03:39;;;;;;;11.85;4.63;;;;;;;6.70;56.43;95035.56;4924740;29;20043;-78
2021/12/30 10:06:13;;;;;;;4.18;3.80;;;;;;;6.71;56.57;95032.00;4924011;29;20043;-78
2021/12/30 10:08:43;;;;;;;4.03;3.70;;;;;;;6.90;56.51;95038.91;4923358;29;20067;-77
2021/12/30 10:11:13;;;;;;;9.43;4.28;;;;;;;6.92;55.65;95040.28;4929688;29;20067;-79
2021/12/30 10:13:41;;;;;;;5.60;4.30;;;;;;;6.98;56.01;95030.91;4903894;29;20036;-78
2021/12/30 10:16:11;;;;;;;12.40;7.60;;;;;;;7.06;56.17;95035.88;4902461;29;20035;-78
2021/12/30 10:18:47;;;;;;;8.07;5.28;;;;;;;7.04;55.92;95030.09;4906323;29;20099;-78
2021/12/30 10:21:17;;;;;;;5.88;4.75;;;;;;;7.21;55.35;95025.28;4942562;29;20039;-78
2021/12/30 10:23:44;;;;;;;8.10;4.72;;;;;;;7.32;54.67;95021.22;4939349;29;20044;-79
2021/12/30 10:26:12;;;;;;;6.35;4.82;;;;;;;7.48;54.76;95041.44;4938227;29;20114;-79
2021/12/30 10:28:40;;;;;;;8.48;5.40;;;;;;;7.54;54.42;95035.47;4903963;29;20051;-81
2021/12/30 10:31:11;;;;;;;6.13;4.22;;;;;;;7.59;53.99;95043.41;4902238;29;20441;-80
2021/12/30 10:34:01;;;;;;;6.40;4.70;;;;;;;7.41;54.18;95043.28;4936224;29;20035;-80
2021/12/30 10:36:30;;;;;;;5.15;3.80;;;;;;;7.45;54.18;95047.03;4936400;29;20079;-82
2021/12/30 10:39:13;;;;;;;8.55;3.85;;;;;;;7.48;53.93;95038.88;4939010;29;20043;-80
2021/12/30 10:41:38;;;;;;;5.05;3.15;;;;;;;7.30;53.38;95038.75;4929874;29;20036;-78
2021/12/30 10:44:04;;;;;;;4.20;3.80;;;;;;;7.17;54.44;95048.16;4911984;29;20031;-78
2021/12/30 10:46:30;;;;;;;3.45;3.15;;;;;;;7.15;54.13;95052.72;4908381;29;20032;-76
2021/12/30 10:48:55;;;;;;;3.30;3.00;;;;;;;7.13;54.06;95044.38;4922003;29;20032;-77
2021/12/30 10:51:32;;;;;;;5.28;4.30;;;;;;;7.13;54.92;95041.78;4934738;29;20468;-83
2021/12/30 10:53:58;;;;;;;4.90;3.40;;;;;;;7.22;54.72;95037.19;4914694;29;20032;-76
2021/12/30 10:56:33;;;;;;;3.40;3.10;;;;;;;7.35;54.36;95041.53;4934025;29;20039;-77
2021/12/30 10:59:19;;;;;;;3.38;3.08;;;;;;;7.57;53.87;95049.78;4910677;29;20036;-77
2021/12/30 11:01:51;;;;;;;5.30;3.40;;;;;;;7.51;53.44;95051.41;4935051;29;20044;-77
2021/12/30 11:04:17;;;;;;;2.92;2.72;;;;;;;7.68;53.29;95057.69;4935953;29;20047;-78
2021/12/30 11:06:42;;;;;;;4.85;3.50;;;;;;;7.76;52.25;95057.44;4932208;29;20098;-78
2021/12/30 11:09:09;;;;;;;7.65;3.35;;;;;;;7.93;52.28;95052.56;4933981;29;20035;-77
2021/12/30 11:11:35;;;;;;;4.13;3.40;;;;;;;8.01;52.13;95057.50;4917312;29;20032;-76
2021/12/30 11:14:07;;;;;;;5.38;3.60;;;;;;;7.90;52.01;95059.94;4915143;29;20239;-77
2021/12/30 11:16:33;;;;;;;3.80;3.20;;;;;;;8.08;52.21;95072.97;4902032;29;20035;-78
2021/12/30 11:18:59;;;;;;;5.15;3.42;;;;;;;8.17;52.13;95076.91;4934125;29;20051;-78
2021/12/30 11:21:37;;;;;;;3.75;3.05;;;;;;;8.22;50.95;95082.25;4916816;29;20055;-78
2021/12/30 11:24:03;;;;;;;7.25;3.30;;;;;;;8.16;51.36;95084.91;4901964;29;20035;-78
2021/12/30 11:26:28;;;;;;;3.95;3.42;;;;;;;8.04;51.38;95082.19;4900880;29;20380;-79
2021/12/30 11:28:54;;;;;;;5.85;3.03;;;;;;;8.04;51.22;95088.16;4916893;29;20039;-78
2021/12/30 11:31:19;;;;;;;4.28;3.42;;;;;;;8.02;51.40;95094.53;4932490;29;20063;-78
2021/12/30 11:33:45;;;;;;;6.22;3.22;;;;;;;8.11;51.22;95086.28;4917565;29;20028;-79
2021/12/30 11:36:11;;;;;;;6.53;3.50;;;;;;;8.16;51.26;95090.88;4933620;29;20178;-78
2021/12/30 11:38:36;;;;;;;6.55;4.40;;;;;;;8.21;50.81;95090.22;4918566;29;20115;-78
2021/12/30 11:41:01;;;;;;;4.53;3.70;;;;;;;8.32;49.93;95087.75;4935393;29;20415;-78